KNFL/NFL METAR and TAF weather

Enter ICAO airport designator
Station Type Date Time Source
KNFL METAR 2018/12/17 16:56 UTC NOAA

KNFL 171656Z VRB03KT 10SM -RA BKN065 BKN075 BKN120 BKN220 03/M01 A3012 RMK AO2 RAB56 SLP167 P0000 T00331006


Station Type Date Time Source
KNFL Decoded METAR 2018/12/17 16:56 UTC NOAA

FALLON NAVAL AIR STATION, NV, United States (KNFL) 39-26N 118-41W 1199M
Dec 17, 2018 - 11:56 AM EST / 2018.12.17 1656 UTC
Wind: Variable at 3 MPH (3 KT):0
Visibility: 10 mile(s):0
Sky conditions: mostly cloudy
Weather: light rain
Precipitation last hour: A trace
Temperature: 37.9 F (3.3 C)
Dew Point: 30.9 F (-0.6 C)
Relative Humidity: 75%
Pressure (altimeter): 30.12 in. Hg (1019 hPa)
ob: KNFL 171656Z VRB03KT 10SM -RA BKN065 BKN075 BKN120 BKN220 03/M01 A3012 RMK AO2 RAB56 SLP167 P0000 T00331006
cycle: 17

Station Type Date Time Source
KNFL TAF 2018/12/17 15:57 UTC NOAA

TAF KNFL 1715/1815 VRB06KT 9999 VCSH BKN070 BKN120 BKN220 QNH2998INS
FM181800 VRB06KT 9999 SCT070 BKN120 BKN220 QNH3001INS
BECMG 1809/1811 VRB06KT 9999 FEW075 BKN090 BKN250 QNH3008INS T09/1723Z TM03/1812Z FS30051


Example: see airport list